Terminal Aerodrome Forecast
Issued by NWS

Home | Current Version | Previous Version | Text Only | Print | Product List | Glossary On
Versions: 1 2 3 4 5 6 7 8 9 10 11 12 13
000
FTUS43 KGRB 302300
TAFMTW
TAF
KMTW 302325Z 0100/0124 12005KT P6SM SCT070
     FM010400 34004KT P6SM SKC
     FM011600 24005KT P6SM FEW040 SCT200
     FM012000 19008KT P6SM SCT040 BKN250=

USA.gov is the U.S. government's official web portal to all federal, state and local government web resources and services.